Hawaii National Park, Hawaii
Current Conditions -  °F | °C
As of 4:53 AM on Tuesday 21 Oct 2014 (Local Time) from PHTO Reporting Station
Scattered Clouds Scattered Clouds  
Wind Chill: 71°   Ceiling: Unl
Heat Index: 71°   Visibility: 10mi
Dew Point: 65°   Wind: 5mph
Humidity: 81%   Direction: 220°SW
Pressure: 29.99"   Gusts: NA
Location:  19.4324°N, 155.258°W
Report Text: PHTO 211453Z 22004KT 10SM FEW025 SCT055 22/18 A2999 RMK AO2 SLP155 T02170183 55006
Loading
Personal Weather Stations






























Interactive Weather Map
Tropical Storm Tracking
New forecast layout! Learn more

10-Day Weather Forecast

Advertisements
Track Severe Weather on mobile